»·PEaware :: SKY525 KCLM-KFHR

SKY525 :: KCLM-KFHR

FLIGHT INFORMATION

Flight Status: Arrived
Operator:
Skymark Airlines
More flights by this operator :: More flights under this callsign
Pilot: Kim B. (19519)
Aircraft: DORNIER 228
(D228)
More flights by this aircraft type
Origin: KCLM Fairchild Intl
United States
Destination: KFHR Friday Harbor
United States
More flights between these airports :: More routes between these airports
Route: WATTR7 WATTR
File this flight plan on PilotEdge
Remarks: SKY-3
Altitude:
(Current/Filed)
7,000ft
Speed:
(Current/Filed)
200kts
Departed: 03-Nov-18 03:25 PM
Arrived: 03-Nov-18 04:24 PM
Distance/Time
Traveled:
31nm/0:59
Distance/Time
To Go:
Arrived

Flight Plot

Page will automatically refresh every two minutes.

Flight plan parsing failed; only flown route is shown


Map Options




Map Legend


Flown Route
Filed Route
Departure Airport
Arrival Airport
Navaid (VOR, NDB)
Fix

Horizontal Profiles

Position Reports

Time Latitude Longitude Heading Altitude Ground
Speed
03-Nov-18 15:07 48.116008 -123.491565 15 291ft 0kts
03-Nov-18 15:08 48.116008 -123.491565 15 291ft 0kts
03-Nov-18 15:09 48.116008 -123.491565 15 291ft 0kts
03-Nov-18 15:10 48.116008 -123.491565 15 291ft 0kts
03-Nov-18 15:11 48.116008 -123.491565 15 291ft 0kts
03-Nov-18 15:12 48.116008 -123.491565 15 291ft 0kts
03-Nov-18 15:13 48.116008 -123.491565 15 291ft 0kts
03-Nov-18 15:14 48.116008 -123.491565 15 291ft 0kts
03-Nov-18 15:15 48.116008 -123.491565 15 291ft 0kts
03-Nov-18 15:16 48.116008 -123.491565 15 291ft 0kts
03-Nov-18 15:17 48.116008 -123.491566 14 291ft 0kts
03-Nov-18 15:18 48.116008 -123.491566 14 291ft 0kts
03-Nov-18 15:19 48.116008 -123.491566 14 291ft 0kts
03-Nov-18 15:20 48.116008 -123.491566 14 291ft 0kts
03-Nov-18 15:21 48.116008 -123.491566 14 291ft 0kts
03-Nov-18 15:22 48.117360 -123.495415 272 275ft 20kts
03-Nov-18 15:23 48.118755 -123.504852 286 284ft 29kts
03-Nov-18 15:24 48.119467 -123.507066 15 285ft 0kts
03-Nov-18 15:25 48.119467 -123.507066 15 285ft 0kts
03-Nov-18 15:26 48.119859 -123.506923 13 285ft 0kts
03-Nov-18 15:27 48.119986 -123.506869 18 285ft 2kts
03-Nov-18 15:28 48.117398 -123.490732 106 605ft 127kts
03-Nov-18 15:29 48.117996 -123.441648 63 3310ft 127kts
03-Nov-18 15:30 48.128122 -123.390517 87 5624ft 140kts
03-Nov-18 15:31 48.132794 -123.331924 76 7470ft 147kts
03-Nov-18 15:32 48.133610 -123.264089 92 6992ft 157kts
03-Nov-18 15:33 48.128846 -123.208909 98 5741ft 123kts
03-Nov-18 15:34 48.122128 -123.160392 101 4169ft 115kts
03-Nov-18 15:35 48.130782 -123.175594 270 4082ft 116kts
03-Nov-18 15:36 48.122149 -123.241074 264 2850ft 180kts
03-Nov-18 15:37 48.118241 -123.308156 265 895ft 121kts
03-Nov-18 15:38 48.116640 -123.351309 270 726ft 99kts
03-Nov-18 15:39 48.117010 -123.396186 270 767ft 113kts
03-Nov-18 15:40 48.116685 -123.447083 259 1033ft 138kts
03-Nov-18 15:41 48.117424 -123.490988 285 309ft 88kts
03-Nov-18 15:42 48.118451 -123.502169 193 280ft 0kts
03-Nov-18 15:43 48.117904 -123.500208 128 272ft 10kts
03-Nov-18 15:44 48.117073 -123.501160 279 275ft 0kts
03-Nov-18 15:45 48.117073 -123.501160 279 275ft 0kts
03-Nov-18 15:46 48.117073 -123.501160 279 275ft 0kts
03-Nov-18 15:47 48.117073 -123.501160 279 275ft 0kts
03-Nov-18 15:48 48.117073 -123.501160 279 275ft 0kts
03-Nov-18 15:49 48.117073 -123.501160 279 275ft 0kts
03-Nov-18 15:50 48.117073 -123.501160 279 275ft 0kts
03-Nov-18 15:51 48.117073 -123.501160 279 275ft 0kts
03-Nov-18 15:52 48.117073 -123.501160 279 275ft 0kts
03-Nov-18 15:53 48.117073 -123.501161 279 275ft 0kts
03-Nov-18 15:54 48.117073 -123.501160 279 275ft 0kts
03-Nov-18 15:55 48.117073 -123.501160 279 275ft 0kts
03-Nov-18 15:56 48.117764 -123.500115 18 272ft 4kts
03-Nov-18 15:57 48.118777 -123.505002 285 284ft 2kts
03-Nov-18 15:58 48.119483 -123.507072 13 285ft 0kts
03-Nov-18 15:59 48.119483 -123.507072 13 285ft 0kts
03-Nov-18 16:00 48.119483 -123.507072 13 285ft 0kts
03-Nov-18 16:01 48.120103 -123.505998 101 285ft 34kts
03-Nov-18 16:02 48.117506 -123.459646 69 2083ft 130kts
03-Nov-18 16:03 48.129545 -123.408951 69 4846ft 136kts
03-Nov-18 16:04 48.134182 -123.350384 78 6998ft 169kts
03-Nov-18 16:05 48.136462 -123.265732 90 7001ft 217kts
03-Nov-18 16:06 48.135088 -123.177531 88 6999ft 207kts
03-Nov-18 16:07 48.142035 -123.094964 77 7004ft 203kts
03-Nov-18 16:08 48.141604 -123.020480 89 6936ft 206kts
03-Nov-18 16:09 48.138518 -122.956299 88 6545ft 198kts
03-Nov-18 16:10 48.171186 -122.931908 349 6154ft 212kts
03-Nov-18 16:11 48.226486 -122.945730 349 5670ft 210kts
03-Nov-18 16:12 48.283628 -122.960921 348 5073ft 211kts
03-Nov-18 16:13 48.339670 -122.976764 348 4387ft 210kts
03-Nov-18 16:14 48.395766 -122.993431 348 3697ft 207kts
03-Nov-18 16:15 48.451564 -123.010880 348 3040ft 201kts
03-Nov-18 16:16 48.503114 -123.024700 354 3016ft 173kts
03-Nov-18 16:17 48.543415 -123.016056 71 2992ft 150kts
03-Nov-18 16:18 48.519632 -122.999771 214 2777ft 154kts
03-Nov-18 16:19 48.483462 -123.020257 159 2316ft 155kts
03-Nov-18 16:20 48.442845 -123.011152 164 2298ft 143kts
03-Nov-18 16:21 48.416259 -122.970661 131 2307ft 139kts
03-Nov-18 16:22 48.388131 -122.965875 248 2314ft 152kts
03-Nov-18 16:23 48.409092 -123.021113 325 2128ft 168kts
03-Nov-18 16:24 48.454651 -123.025915 3 1468ft 144kts
03-Nov-18 16:25 48.486898 -123.024871 5 899ft 114kts
03-Nov-18 16:26 48.517356 -123.024101 0 107ft 103kts
03-Nov-18 16:27 48.526570 -123.025310 269 118ft 0kts
03-Nov-18 16:28 48.524752 -123.025955 125 115ft 0kts
03-Nov-18 16:29 48.524752 -123.025955 125 115ft 0kts
03-Nov-18 16:30 48.524752 -123.025955 125 115ft 0kts
03-Nov-18 16:31 48.524752 -123.025955 125 115ft 0kts
03-Nov-18 16:32 48.524752 -123.025955 125 115ft 0kts
03-Nov-18 16:33 48.524752 -123.025955 125 115ft 0kts
03-Nov-18 16:34 48.524752 -123.025955 125 115ft 0kts
03-Nov-18 16:35 48.524752 -123.025955 125 115ft 0kts
03-Nov-18 16:36 48.524752 -123.025955 125 115ft 0kts
03-Nov-18 16:37 48.524752 -123.025955 125 115ft 0kts
03-Nov-18 16:38 48.524752 -123.025955 125 115ft 0kts
03-Nov-18 16:39 48.524752 -123.025955 125 115ft 0kts
03-Nov-18 16:40 48.524752 -123.025955 125 115ft 0kts

Navigation Log

Ident Type
Flight plan parsing failed, navigation log unavailable